sensor_id;sensor_type;location;lat;lon;timestamp;P1;durP1;ratioP1;P2;durP2;ratioP2
57615;SDS011;43816;52.054;-9.494;2023-06-10T00:00:06;4.70;;;4.30;;
57615;SDS011;43816;52.054;-9.494;2023-06-10T00:00:17;4.80;;;4.40;;
57615;SDS011;43816;52.054;-9.494;2023-06-10T00:00:27;4.75;;;4.35;;
57615;SDS011;43816;52.054;-9.494;2023-06-10T00:00:37;4.80;;;4.40;;
57615;SDS011;43816;52.054;-9.494;2023-06-10T00:00:48;4.57;;;4.20;;
57615;SDS011;43816;52.054;-9.494;2023-06-10T00:00:58;4.82;;;4.20;;
57615;SDS011;43816;52.054;-9.494;2023-06-10T00:01:08;4.90;;;4.10;;
57615;SDS011;43816;52.054;-9.494;2023-06-10T00:01:19;4.97;;;4.10;;
57615;SDS011;43816;52.054;-9.494;2023-06-10T00:01:29;4.40;;;4.00;;
57615;SDS011;43816;52.054;-9.494;2023-06-10T00:01:39;4.57;;;4.10;;
57615;SDS011;43816;52.054;-9.494;2023-06-10T00:01:53;4.50;;;4.10;;
57615;SDS011;43816;52.054;-9.494;2023-06-10T00:02:04;4.73;;;4.33;;
57615;SDS011;43816;52.054;-9.494;2023-06-10T00:02:14;4.65;;;4.25;;
57615;SDS011;43816;52.054;-9.494;2023-06-10T00:02:25;4.60;;;4.20;;
57615;SDS011;43816;52.054;-9.494;2023-06-10T00:02:36;4.53;;;4.13;;
57615;SDS011;43816;52.054;-9.494;2023-06-10T00:02:46;4.67;;;4.27;;
57615;SDS011;43816;52.054;-9.494;2023-06-10T00:02:57;4.53;;;4.20;;
57615;SDS011;43816;52.054;-9.494;2023-06-10T00:03:07;4.50;;;4.10;;
57615;SDS011;43816;52.054;-9.494;2023-06-10T00:03:20;4.38;;;4.03;;
57615;SDS011;43816;52.054;-9.494;2023-06-10T00:03:31;4.77;;;4.37;;
57615;SDS011;43816;52.054;-9.494;2023-06-10T00:03:41;4.82;;;4.43;;
57615;SDS011;43816;52.054;-9.494;2023-06-10T00:03:54;4.83;;;4.43;;
57615;SDS011;43816;52.054;-9.494;2023-06-10T00:04:07;4.55;;;4.15;;
57615;SDS011;43816;52.054;-9.494;2023-06-10T00:04:18;4.38;;;3.97;;
57615;SDS011;43816;52.054;-9.494;2023-06-10T00:04:28;4.37;;;3.97;;
57615;SDS011;43816;52.054;-9.494;2023-06-10T00:04:38;4.40;;;4.00;;
57615;SDS011;43816;52.054;-9.494;2023-06-10T00:04:49;4.67;;;4.27;;
57615;SDS011;43816;52.054;-9.494;2023-06-10T00:04:59;4.70;;;4.30;;
57615;SDS011;43816;52.054;-9.494;2023-06-10T00:05:09;4.73;;;4.33;;
57615;SDS011;43816;52.054;-9.494;2023-06-10T00:05:19;4.40;;;4.10;;
57615;SDS011;43816;52.054;-9.494;2023-06-10T00:05:30;4.60;;;4.20;;
57615;SDS011;43816;52.054;-9.494;2023-06-10T00:05:40;4.57;;;4.17;;
57615;SDS011;43816;52.054;-9.494;2023-06-10T00:05:51;4.65;;;4.25;;
57615;SDS011;43816;52.054;-9.494;2023-06-10T00:06:01;4.57;;;4.27;;
57615;SDS011;43816;52.054;-9.494;2023-06-10T00:06:14;4.60;;;4.30;;
57615;SDS011;43816;52.054;-9.494;2023-06-10T00:06:25;4.55;;;4.20;;
57615;SDS011;43816;52.054;-9.494;2023-06-10T00:06:35;4.37;;;4.07;;
57615;SDS011;43816;52.054;-9.494;2023-06-10T00:06:45;4.40;;;4.10;;
57615;SDS011;43816;52.054;-9.494;2023-06-10T00:06:56;4.75;;;4.35;;
57615;SDS011;43816;52.054;-9.494;2023-06-10T00:07:06;4.83;;;4.43;;
57615;SDS011;43816;52.054;-9.494;2023-06-10T00:07:16;4.93;;;4.50;;
57615;SDS011;43816;52.054;-9.494;2023-06-10T00:07:26;4.63;;;4.22;;
57615;SDS011;43816;52.054;-9.494;2023-06-10T00:07:40;4.63;;;4.23;;
57615;SDS011;43816;52.054;-9.494;2023-06-10T00:07:50;4.63;;;4.20;;
57615;SDS011;43816;52.054;-9.494;2023-06-10T00:08:00;4.97;;;4.47;;
57615;SDS011;43816;52.054;-9.494;2023-06-10T00:08:10;4.93;;;4.40;;
57615;SDS011;43816;52.054;-9.494;2023-06-10T00:08:21;4.87;;;4.47;;
57615;SDS011;43816;52.054;-9.494;2023-06-10T00:08:31;4.80;;;4.40;;
57615;SDS011;43816;52.054;-9.494;2023-06-10T00:08:41;4.78;;;4.38;;
57615;SDS011;43816;52.054;-9.494;2023-06-10T00:08:52;4.80;;;4.40;;
57615;SDS011;43816;52.054;-9.494;2023-06-10T00:09:03;4.60;;;4.30;;
57615;SDS011;43816;52.054;-9.494;2023-06-10T00:09:14;4.68;;;4.38;;
57615;SDS011;43816;52.054;-9.494;2023-06-10T00:09:24;4.60;;;4.30;;
57615;SDS011;43816;52.054;-9.494;2023-06-10T00:09:37;4.45;;;4.15;;
57615;SDS011;43816;52.054;-9.494;2023-06-10T00:09:48;4.50;;;4.20;;
57615;SDS011;43816;52.054;-9.494;2023-06-10T00:09:59;4.80;;;4.40;;
57615;SDS011;43816;52.054;-9.494;2023-06-10T00:10:09;4.78;;;4.38;;
57615;SDS011;43816;52.054;-9.494;2023-06-10T00:10:20;4.57;;;4.17;;
57615;SDS011;43816;52.054;-9.494;2023-06-10T00:10:30;4.40;;;4.10;;
57615;SDS011;43816;52.054;-9.494;2023-06-10T00:10:40;4.53;;;4.20;;
57615;SDS011;43816;52.054;-9.494;2023-06-10T00:10:51;4.40;;;4.10;;
57615;SDS011;43816;52.054;-9.494;2023-06-10T00:11:01;4.33;;;4.03;;
57615;SDS011;43816;52.054;-9.494;2023-06-10T00:11:11;4.50;;;4.10;;
57615;SDS011;43816;52.054;-9.494;2023-06-10T00:11:22;4.80;;;4.30;;
57615;SDS011;43816;52.054;-9.494;2023-06-10T00:11:32;4.80;;;4.20;;
57615;SDS011;43816;52.054;-9.494;2023-06-10T00:11:42;4.50;;;4.10;;
57615;SDS011;43816;52.054;-9.494;2023-06-10T00:11:52;4.60;;;4.13;;
57615;SDS011;43816;52.054;-9.494;2023-06-10T00:12:06;4.60;;;4.20;;
57615;SDS011;43816;52.054;-9.494;2023-06-10T00:12:17;4.75;;;4.32;;
57615;SDS011;43816;52.054;-9.494;2023-06-10T00:12:28;4.50;;;4.10;;
57615;SDS011;43816;52.054;-9.494;2023-06-10T00:12:38;4.30;;;4.00;;
57615;SDS011;43816;52.054;-9.494;2023-06-10T00:12:48;4.30;;;4.00;;
57615;SDS011;43816;52.054;-9.494;2023-06-10T00:12:58;4.50;;;4.10;;
57615;SDS011;43816;52.054;-9.494;2023-06-10T00:13:09;4.60;;;4.20;;
57615;SDS011;43816;52.054;-9.494;2023-06-10T00:13:19;4.50;;;4.20;;
57615;SDS011;43816;52.054;-9.494;2023-06-10T00:13:29;4.40;;;4.10;;
57615;SDS011;43816;52.054;-9.494;2023-06-10T00:13:40;4.60;;;4.20;;
57615;SDS011;43816;52.054;-9.494;2023-06-10T00:13:50;4.60;;;4.20;;
57615;SDS011;43816;52.054;-9.494;2023-06-10T00:14:00;4.70;;;4.30;;
57615;SDS011;43816;52.054;-9.494;2023-06-10T00:14:10;4.60;;;4.20;;
57615;SDS011;43816;52.054;-9.494;2023-06-10T00:14:21;4.50;;;4.10;;
57615;SDS011;43816;52.054;-9.494;2023-06-10T00:14:31;4.60;;;4.20;;
57615;SDS011;43816;52.054;-9.494;2023-06-10T00:14:41;4.40;;;4.10;;
57615;SDS011;43816;52.054;-9.494;2023-06-10T00:14:52;4.53;;;4.13;;
57615;SDS011;43816;52.054;-9.494;2023-06-10T00:15:03;4.43;;;4.03;;
57615;SDS011;43816;52.054;-9.494;2023-06-10T00:15:16;4.53;;;4.13;;
57615;SDS011;43816;52.054;-9.494;2023-06-10T00:15:27;4.47;;;4.07;;
57615;SDS011;43816;52.054;-9.494;2023-06-10T00:15:37;4.50;;;4.10;;
57615;SDS011;43816;52.054;-9.494;2023-06-10T00:15:48;4.53;;;4.13;;
57615;SDS011;43816;52.054;-9.494;2023-06-10T00:15:58;4.40;;;4.10;;
57615;SDS011;43816;52.054;-9.494;2023-06-10T00:16:08;4.60;;;4.20;;
57615;SDS011;43816;52.054;-9.494;2023-06-10T00:16:19;4.60;;;4.30;;
57615;SDS011;43816;52.054;-9.494;2023-06-10T00:16:29;4.55;;;4.25;;
57615;SDS011;43816;52.054;-9.494;2023-06-10T00:16:39;4.30;;;4.00;;
57615;SDS011;43816;52.054;-9.494;2023-06-10T00:16:49;4.10;;;3.80;;
57615;SDS011;43816;52.054;-9.494;2023-06-10T00:17:00;4.20;;;3.90;;
57615;SDS011;43816;52.054;-9.494;2023-06-10T00:17:10;4.20;;;3.90;;
57615;SDS011;43816;52.054;-9.494;2023-06-10T00:17:20;4.13;;;3.83;;
57615;SDS011;43816;52.054;-9.494;2023-06-10T00:17:31;4.20;;;3.90;;
57615;SDS011;43816;52.054;-9.494;2023-06-10T00:17:41;4.67;;;4.27;;
57615;SDS011;43816;52.054;-9.494;2023-06-10T00:17:51;4.70;;;4.30;;
57615;SDS011;43816;52.054;-9.494;2023-06-10T00:18:02;4.70;;;4.30;;
57615;SDS011;43816;52.054;-9.494;2023-06-10T00:18:12;4.28;;;3.97;;
57615;SDS011;43816;52.054;-9.494;2023-06-10T00:18:23;4.30;;;4.00;;
57615;SDS011;43816;52.054;-9.494;2023-06-10T00:18:33;4.20;;;3.90;;
57615;SDS011;43816;52.054;-9.494;2023-06-10T00:18:44;4.25;;;3.95;;
57615;SDS011;43816;52.054;-9.494;2023-06-10T00:18:54;4.50;;;4.10;;
57615;SDS011;43816;52.054;-9.494;2023-06-10T00:19:04;4.53;;;4.23;;
57615;SDS011;43816;52.054;-9.494;2023-06-10T00:19:15;4.60;;;4.30;;
57615;SDS011;43816;52.054;-9.494;2023-06-10T00:19:25;4.53;;;4.23;;
57615;SDS011;43816;52.054;-9.494;2023-06-10T00:19:36;4.40;;;4.10;;
57615;SDS011;43816;52.054;-9.494;2023-06-10T00:19:47;4.25;;;3.95;;
57615;SDS011;43816;52.054;-9.494;2023-06-10T00:19:57;4.23;;;3.93;;
57615;SDS011;43816;52.054;-9.494;2023-06-10T00:20:10;4.57;;;4.17;;
57615;SDS011;43816;52.054;-9.494;2023-06-10T00:20:21;4.50;;;4.18;;
57615;SDS011;43816;52.054;-9.494;2023-06-10T00:20:31;4.40;;;4.10;;
57615;SDS011;43816;52.054;-9.494;2023-06-10T00:20:42;4.37;;;4.07;;
57615;SDS011;43816;52.054;-9.494;2023-06-10T00:20:52;4.60;;;4.20;;
57615;SDS011;43816;52.054;-9.494;2023-06-10T00:21:03;4.55;;;4.15;;
57615;SDS011;43816;52.054;-9.494;2023-06-10T00:21:13;4.53;;;4.13;;
57615;SDS011;43816;52.054;-9.494;2023-06-10T00:21:23;4.30;;;4.00;;
57615;SDS011;43816;52.054;-9.494;2023-06-10T00:21:34;4.35;;;3.95;;
57615;SDS011;43816;52.054;-9.494;2023-06-10T00:21:44;4.35;;;4.00;;
57615;SDS011;43816;52.054;-9.494;2023-06-10T00:21:55;4.30;;;4.00;;
57615;SDS011;43816;52.054;-9.494;2023-06-10T00:22:06;4.38;;;4.07;;
57615;SDS011;43816;52.054;-9.494;2023-06-10T00:22:16;4.20;;;3.90;;
57615;SDS011;43816;52.054;-9.494;2023-06-10T00:22:27;4.17;;;3.87;;
57615;SDS011;43816;52.054;-9.494;2023-06-10T00:22:37;4.20;;;3.90;;
57615;SDS011;43816;52.054;-9.494;2023-06-10T00:22:48;4.30;;;4.00;;
57615;SDS011;43816;52.054;-9.494;2023-06-10T00:22:58;4.43;;;4.13;;
57615;SDS011;43816;52.054;-9.494;2023-06-10T00:23:09;4.43;;;4.13;;
57615;SDS011;43816;52.054;-9.494;2023-06-10T00:23:19;4.50;;;4.20;;
57615;SDS011;43816;52.054;-9.494;2023-06-10T00:23:30;4.60;;;4.25;;
57615;SDS011;43816;52.054;-9.494;2023-06-10T00:23:40;4.57;;;4.20;;
57615;SDS011;43816;52.054;-9.494;2023-06-10T00:23:51;4.57;;;4.17;;
57615;SDS011;43816;52.054;-9.494;2023-06-10T00:24:01;4.27;;;3.97;;
57615;SDS011;43816;52.054;-9.494;2023-06-10T00:24:14;4.38;;;4.05;;
57615;SDS011;43816;52.054;-9.494;2023-06-10T00:24:25;4.30;;;4.00;;
57615;SDS011;43816;52.054;-9.494;2023-06-10T00:24:35;4.20;;;3.90;;
57615;SDS011;43816;52.054;-9.494;2023-06-10T00:24:45;4.27;;;3.97;;
57615;SDS011;43816;52.054;-9.494;2023-06-10T00:24:55;4.30;;;4.00;;
57615;SDS011;43816;52.054;-9.494;2023-06-10T00:25:06;4.40;;;4.10;;
57615;SDS011;43816;52.054;-9.494;2023-06-10T00:25:16;4.10;;;3.80;;
57615;SDS011;43816;52.054;-9.494;2023-06-10T00:25:27;4.10;;;3.80;;
57615;SDS011;43816;52.054;-9.494;2023-06-10T00:25:37;4.13;;;3.83;;
57615;SDS011;43816;52.054;-9.494;2023-06-10T00:25:47;4.28;;;3.97;;
57615;SDS011;43816;52.054;-9.494;2023-06-10T00:25:58;4.37;;;4.07;;
57615;SDS011;43816;52.054;-9.494;2023-06-10T00:26:09;4.47;;;4.18;;
57615;SDS011;43816;52.054;-9.494;2023-06-10T00:26:19;4.45;;;4.13;;
57615;SDS011;43816;52.054;-9.494;2023-06-10T00:26:29;4.60;;;4.20;;
57615;SDS011;43816;52.054;-9.494;2023-06-10T00:26:40;4.43;;;4.00;;
57615;SDS011;43816;52.054;-9.494;2023-06-10T00:26:51;4.32;;;3.92;;
57615;SDS011;43816;52.054;-9.494;2023-06-10T00:27:04;4.13;;;3.83;;
57615;SDS011;43816;52.054;-9.494;2023-06-10T00:27:15;4.22;;;3.92;;
57615;SDS011;43816;52.054;-9.494;2023-06-10T00:27:25;4.30;;;3.90;;
57615;SDS011;43816;52.054;-9.494;2023-06-10T00:27:35;4.33;;;3.93;;
57615;SDS011;43816;52.054;-9.494;2023-06-10T00:27:46;4.37;;;4.00;;
57615;SDS011;43816;52.054;-9.494;2023-06-10T00:27:56;4.40;;;4.10;;
57615;SDS011;43816;52.054;-9.494;2023-06-10T00:28:09;4.35;;;4.05;;
57615;SDS011;43816;52.054;-9.494;2023-06-10T00:28:22;4.22;;;3.92;;
57615;SDS011;43816;52.054;-9.494;2023-06-10T00:28:32;4.20;;;3.90;;
57615;SDS011;43816;52.054;-9.494;2023-06-10T00:28:43;4.27;;;3.97;;
57615;SDS011;43816;52.054;-9.494;2023-06-10T00:28:53;4.33;;;4.00;;
57615;SDS011;43816;52.054;-9.494;2023-06-10T00:29:03;4.27;;;3.97;;
57615;SDS011;43816;52.054;-9.494;2023-06-10T00:29:14;4.20;;;3.90;;
57615;SDS011;43816;52.054;-9.494;2023-06-10T00:29:24;4.10;;;3.80;;
57615;SDS011;43816;52.054;-9.494;2023-06-10T00:29:34;4.17;;;3.87;;
57615;SDS011;43816;52.054;-9.494;2023-06-10T00:29:45;4.20;;;3.90;;
57615;SDS011;43816;52.054;-9.494;2023-06-10T00:29:55;4.27;;;3.97;;
57615;SDS011;43816;52.054;-9.494;2023-06-10T00:30:05;4.40;;;4.10;;
57615;SDS011;43816;52.054;-9.494;2023-06-10T00:30:19;4.40;;;4.10;;
57615;SDS011;43816;52.054;-9.494;2023-06-10T00:30:29;4.30;;;4.00;;
57615;SDS011;43816;52.054;-9.494;2023-06-10T00:30:40;4.23;;;3.93;;
57615;SDS011;43816;52.054;-9.494;2023-06-10T00:30:53;4.20;;;3.90;;
57615;SDS011;43816;52.054;-9.494;2023-06-10T00:31:03;4.30;;;4.00;;
57615;SDS011;43816;52.054;-9.494;2023-06-10T00:31:14;4.30;;;4.00;;
57615;SDS011;43816;52.054;-9.494;2023-06-10T00:31:24;4.37;;;4.07;;
57615;SDS011;43816;52.054;-9.494;2023-06-10T00:31:35;4.30;;;4.00;;
57615;SDS011;43816;52.054;-9.494;2023-06-10T00:31:47;4.25;;;3.95;;
57615;SDS011;43816;52.054;-9.494;2023-06-10T00:31:57;4.20;;;3.90;;
57615;SDS011;43816;52.054;-9.494;2023-06-10T00:32:10;4.30;;;3.90;;
57615;SDS011;43816;52.054;-9.494;2023-06-10T00:32:21;4.40;;;4.10;;
57615;SDS011;43816;52.054;-9.494;2023-06-10T00:32:31;4.30;;;4.00;;
57615;SDS011;43816;52.054;-9.494;2023-06-10T00:32:44;4.30;;;4.00;;
57615;SDS011;43816;52.054;-9.494;2023-06-10T00:32:55;4.43;;;4.10;;
57615;SDS011;43816;52.054;-9.494;2023-06-10T00:33:05;4.30;;;4.00;;
57615;SDS011;43816;52.054;-9.494;2023-06-10T00:33:15;4.30;;;4.00;;
57615;SDS011;43816;52.054;-9.494;2023-06-10T00:33:26;4.40;;;4.10;;
57615;SDS011;43816;52.054;-9.494;2023-06-10T00:33:36;4.57;;;4.27;;
57615;SDS011;43816;52.054;-9.494;2023-06-10T00:33:46;4.80;;;4.40;;
57615;SDS011;43816;52.054;-9.494;2023-06-10T00:33:56;4.63;;;4.30;;
57615;SDS011;43816;52.054;-9.494;2023-06-10T00:34:07;4.60;;;4.20;;
57615;SDS011;43816;52.054;-9.494;2023-06-10T00:34:18;4.43;;;4.13;;
57615;SDS011;43816;52.054;-9.494;2023-06-10T00:34:28;4.33;;;4.03;;
57615;SDS011;43816;52.054;-9.494;2023-06-10T00:34:38;4.30;;;4.00;;
57615;SDS011;43816;52.054;-9.494;2023-06-10T00:34:49;4.30;;;4.00;;
57615;SDS011;43816;52.054;-9.494;2023-06-10T00:34:59;4.40;;;4.10;;
57615;SDS011;43816;52.054;-9.494;2023-06-10T00:35:09;4.30;;;4.00;;
57615;SDS011;43816;52.054;-9.494;2023-06-10T00:35:20;4.40;;;4.10;;
57615;SDS011;43816;52.054;-9.494;2023-06-10T00:35:30;4.60;;;4.20;;
57615;SDS011;43816;52.054;-9.494;2023-06-10T00:35:40;4.77;;;4.37;;
57615;SDS011;43816;52.054;-9.494;2023-06-10T00:35:50;4.80;;;4.40;;
57615;SDS011;43816;52.054;-9.494;2023-06-10T00:36:01;4.57;;;4.27;;
57615;SDS011;43816;52.054;-9.494;2023-06-10T00:36:14;4.53;;;4.23;;
57615;SDS011;43816;52.054;-9.494;2023-06-10T00:36:24;4.40;;;4.10;;
57615;SDS011;43816;52.054;-9.494;2023-06-10T00:36:35;4.40;;;4.10;;
57615;SDS011;43816;52.054;-9.494;2023-06-10T00:36:45;4.30;;;4.00;;
57615;SDS011;43816;52.054;-9.494;2023-06-10T00:36:55;4.40;;;4.10;;
57615;SDS011;43816;52.054;-9.494;2023-06-10T00:37:06;4.50;;;4.10;;
57615;SDS011;43816;52.054;-9.494;2023-06-10T00:37:16;4.50;;;4.10;;
57615;SDS011;43816;52.054;-9.494;2023-06-10T00:37:26;4.72;;;4.32;;
57615;SDS011;43816;52.054;-9.494;2023-06-10T00:37:36;4.90;;;4.50;;
57615;SDS011;43816;52.054;-9.494;2023-06-10T00:37:47;5.00;;;4.60;;
57615;SDS011;43816;52.054;-9.494;2023-06-10T00:37:57;4.57;;;4.27;;
57615;SDS011;43816;52.054;-9.494;2023-06-10T00:38:07;4.35;;;4.05;;
57615;SDS011;43816;52.054;-9.494;2023-06-10T00:38:18;4.20;;;3.90;;
57615;SDS011;43816;52.054;-9.494;2023-06-10T00:38:28;4.30;;;4.00;;
57615;SDS011;43816;52.054;-9.494;2023-06-10T00:38:38;4.40;;;4.10;;
57615;SDS011;43816;52.054;-9.494;2023-06-10T00:38:48;4.17;;;3.87;;
57615;SDS011;43816;52.054;-9.494;2023-06-10T00:39:02;4.10;;;3.80;;
57615;SDS011;43816;52.054;-9.494;2023-06-10T00:39:13;4.28;;;3.95;;
57615;SDS011;43816;52.054;-9.494;2023-06-10T00:39:23;4.57;;;4.20;;
57615;SDS011;43816;52.054;-9.494;2023-06-10T00:39:33;4.68;;;4.28;;
57615;SDS011;43816;52.054;-9.494;2023-06-10T00:39:47;4.47;;;4.10;;
57615;SDS011;43816;52.054;-9.494;2023-06-10T00:39:57;4.37;;;4.07;;
57615;SDS011;43816;52.054;-9.494;2023-06-10T00:40:08;4.40;;;4.10;;
57615;SDS011;43816;52.054;-9.494;2023-06-10T00:40:18;4.43;;;4.13;;
57615;SDS011;43816;52.054;-9.494;2023-06-10T00:40:28;4.67;;;4.27;;
57615;SDS011;43816;52.054;-9.494;2023-06-10T00:40:39;4.60;;;4.20;;
57615;SDS011;43816;52.054;-9.494;2023-06-10T00:40:49;4.40;;;4.10;;
57615;SDS011;43816;52.054;-9.494;2023-06-10T00:41:03;4.43;;;4.10;;
57615;SDS011;43816;52.054;-9.494;2023-06-10T00:41:16;4.72;;;4.32;;
57615;SDS011;43816;52.054;-9.494;2023-06-10T00:41:26;4.73;;;4.33;;
57615;SDS011;43816;52.054;-9.494;2023-06-10T00:41:36;4.53;;;4.13;;
57615;SDS011;43816;52.054;-9.494;2023-06-10T00:41:47;4.33;;;4.03;;
57615;SDS011;43816;52.054;-9.494;2023-06-10T00:41:57;4.28;;;3.97;;
57615;SDS011;43816;52.054;-9.494;2023-06-10T00:42:07;4.23;;;3.93;;
57615;SDS011;43816;52.054;-9.494;2023-06-10T00:42:18;4.40;;;4.10;;
57615;SDS011;43816;52.054;-9.494;2023-06-10T00:42:28;4.53;;;4.17;;
57615;SDS011;43816;52.054;-9.494;2023-06-10T00:42:38;4.67;;;4.27;;
57615;SDS011;43816;52.054;-9.494;2023-06-10T00:42:49;4.70;;;4.30;;
57615;SDS011;43816;52.054;-9.494;2023-06-10T00:43:02;4.70;;;4.30;;
57615;SDS011;43816;52.054;-9.494;2023-06-10T00:43:12;4.70;;;4.30;;
57615;SDS011;43816;52.054;-9.494;2023-06-10T00:43:23;4.63;;;4.22;;
57615;SDS011;43816;52.054;-9.494;2023-06-10T00:43:33;4.70;;;4.30;;
57615;SDS011;43816;52.054;-9.494;2023-06-10T00:43:43;4.63;;;4.23;;
57615;SDS011;43816;52.054;-9.494;2023-06-10T00:43:54;4.40;;;4.10;;
57615;SDS011;43816;52.054;-9.494;2023-06-10T00:44:04;4.23;;;3.93;;
57615;SDS011;43816;52.054;-9.494;2023-06-10T00:44:15;4.03;;;3.77;;
57615;SDS011;43816;52.054;-9.494;2023-06-10T00:44:26;4.10;;;3.80;;
57615;SDS011;43816;52.054;-9.494;2023-06-10T00:44:38;4.28;;;3.97;;
57615;SDS011;43816;52.054;-9.494;2023-06-10T00:44:49;4.30;;;4.00;;
57615;SDS011;43816;52.054;-9.494;2023-06-10T00:45:03;4.30;;;4.00;;
57615;SDS011;43816;52.054;-9.494;2023-06-10T00:45:17;4.43;;;4.10;;
57615;SDS011;43816;52.054;-9.494;2023-06-10T00:45:27;4.40;;;4.10;;
57615;SDS011;43816;52.054;-9.494;2023-06-10T00:45:38;4.30;;;4.00;;
57615;SDS011;43816;52.054;-9.494;2023-06-10T00:45:48;4.30;;;4.00;;
57615;SDS011;43816;52.054;-9.494;2023-06-10T00:46:00;4.30;;;4.00;;
57615;SDS011;43816;52.054;-9.494;2023-06-10T00:46:11;4.40;;;4.10;;
57615;SDS011;43816;52.054;-9.494;2023-06-10T00:46:22;4.45;;;4.15;;
57615;SDS011;43816;52.054;-9.494;2023-06-10T00:46:37;4.47;;;4.18;;
57615;SDS011;43816;52.054;-9.494;2023-06-10T00:46:48;4.45;;;4.10;;
57615;SDS011;43816;52.054;-9.494;2023-06-10T00:46:58;4.60;;;4.20;;
57615;SDS011;43816;52.054;-9.494;2023-06-10T00:47:08;4.50;;;4.10;;
57615;SDS011;43816;52.054;-9.494;2023-06-10T00:47:19;4.53;;;4.20;;
57615;SDS011;43816;52.054;-9.494;2023-06-10T00:47:29;4.63;;;4.30;;
57615;SDS011;43816;52.054;-9.494;2023-06-10T00:47:41;4.45;;;4.05;;
57615;SDS011;43816;52.054;-9.494;2023-06-10T00:47:51;4.50;;;4.10;;
57615;SDS011;43816;52.054;-9.494;2023-06-10T00:48:01;4.43;;;4.05;;
57615;SDS011;43816;52.054;-9.494;2023-06-10T00:48:13;4.32;;;4.03;;
57615;SDS011;43816;52.054;-9.494;2023-06-10T00:48:26;4.13;;;3.83;;
57615;SDS011;43816;52.054;-9.494;2023-06-10T00:48:40;4.20;;;3.90;;
57615;SDS011;43816;52.054;-9.494;2023-06-10T00:48:54;4.15;;;3.85;;
57615;SDS011;43816;52.054;-9.494;2023-06-10T00:49:05;4.15;;;3.85;;
57615;SDS011;43816;52.054;-9.494;2023-06-10T00:49:15;4.50;;;4.10;;
57615;SDS011;43816;52.054;-9.494;2023-06-10T00:49:26;4.43;;;4.03;;
57615;SDS011;43816;52.054;-9.494;2023-06-10T00:49:37;4.40;;;4.00;;
57615;SDS011;43816;52.054;-9.494;2023-06-10T00:49:47;4.40;;;4.00;;
57615;SDS011;43816;52.054;-9.494;2023-06-10T00:49:59;4.60;;;4.20;;
57615;SDS011;43816;52.054;-9.494;2023-06-10T00:50:09;4.50;;;4.10;;
57615;SDS011;43816;52.054;-9.494;2023-06-10T00:50:20;4.37;;;4.07;;
57615;SDS011;43816;52.054;-9.494;2023-06-10T00:50:33;4.20;;;3.90;;
57615;SDS011;43816;52.054;-9.494;2023-06-10T00:50:45;4.43;;;4.10;;
57615;SDS011;43816;52.054;-9.494;2023-06-10T00:50:58;4.55;;;4.15;;
57615;SDS011;43816;52.054;-9.494;2023-06-10T00:51:09;4.50;;;4.10;;
57615;SDS011;43816;52.054;-9.494;2023-06-10T00:51:22;4.45;;;4.13;;
57615;SDS011;43816;52.054;-9.494;2023-06-10T00:51:38;4.50;;;4.13;;
57615;SDS011;43816;52.054;-9.494;2023-06-10T00:51:49;4.55;;;4.15;;
57615;SDS011;43816;52.054;-9.494;2023-06-10T00:52:03;4.53;;;4.13;;
57615;SDS011;43816;52.054;-9.494;2023-06-10T00:52:16;4.50;;;4.10;;
57615;SDS011;43816;52.054;-9.494;2023-06-10T00:52:27;4.40;;;4.10;;
57615;SDS011;43816;52.054;-9.494;2023-06-10T00:52:42;4.35;;;4.05;;
57615;SDS011;43816;52.054;-9.494;2023-06-10T00:52:53;4.40;;;4.10;;
57615;SDS011;43816;52.054;-9.494;2023-06-10T00:53:06;4.55;;;4.25;;
57615;SDS011;43816;52.054;-9.494;2023-06-10T00:53:18;4.50;;;4.20;;
57615;SDS011;43816;52.054;-9.494;2023-06-10T00:53:47;4.40;;;4.00;;
57615;SDS011;43816;52.054;-9.494;2023-06-10T00:54:01;4.30;;;4.00;;
57615;SDS011;43816;52.054;-9.494;2023-06-10T00:54:16;4.43;;;4.13;;
57615;SDS011;43816;52.054;-9.494;2023-06-10T00:54:26;4.45;;;4.15;;
57615;SDS011;43816;52.054;-9.494;2023-06-10T00:54:37;4.50;;;4.13;;
57615;SDS011;43816;52.054;-9.494;2023-06-10T00:55:09;4.38;;;4.07;;
57615;SDS011;43816;52.054;-9.494;2023-06-10T00:55:22;4.30;;;4.00;;
57615;SDS011;43816;52.054;-9.494;2023-06-10T00:55:33;4.30;;;4.00;;
57615;SDS011;43816;52.054;-9.494;2023-06-10T00:55:44;4.38;;;4.07;;
57615;SDS011;43816;52.054;-9.494;2023-06-10T00:55:54;4.30;;;4.00;;
57615;SDS011;43816;52.054;-9.494;2023-06-10T00:56:05;4.32;;;4.03;;
57615;SDS011;43816;52.054;-9.494;2023-06-10T00:56:16;4.25;;;3.95;;
57615;SDS011;43816;52.054;-9.494;2023-06-10T00:56:26;4.33;;;4.03;;
57615;SDS011;43816;52.054;-9.494;2023-06-10T00:56:37;4.38;;;4.07;;
57615;SDS011;43816;52.054;-9.494;2023-06-10T00:56:47;4.20;;;3.90;;
57615;SDS011;43816;52.054;-9.494;2023-06-10T00:57:01;4.30;;;4.00;;
57615;SDS011;43816;52.054;-9.494;2023-06-10T00:57:12;4.35;;;4.05;;
57615;SDS011;43816;52.054;-9.494;2023-06-10T00:57:22;4.37;;;4.03;;
57615;SDS011;43816;52.054;-9.494;2023-06-10T00:57:35;4.20;;;3.90;;
57615;SDS011;43816;52.054;-9.494;2023-06-10T00:57:46;4.30;;;4.00;;
57615;SDS011;43816;52.054;-9.494;2023-06-10T00:57:57;4.43;;;4.13;;
57615;SDS011;43816;52.054;-9.494;2023-06-10T00:58:08;4.63;;;4.22;;
57615;SDS011;43816;52.054;-9.494;2023-06-10T00:58:19;4.57;;;4.20;;
57615;SDS011;43816;52.054;-9.494;2023-06-10T00:58:29;4.50;;;4.20;;
57615;SDS011;43816;52.054;-9.494;2023-06-10T00:58:39;4.13;;;3.83;;
57615;SDS011;43816;52.054;-9.494;2023-06-10T00:58:50;4.10;;;3.80;;
57615;SDS011;43816;52.054;-9.494;2023-06-10T00:59:00;4.17;;;3.87;;
57615;SDS011;43816;52.054;-9.494;2023-06-10T00:59:11;4.20;;;3.90;;
57615;SDS011;43816;52.054;-9.494;2023-06-10T00:59:21;4.20;;;3.90;;
57615;SDS011;43816;52.054;-9.494;2023-06-10T00:59:32;4.25;;;3.95;;
57615;SDS011;43816;52.054;-9.494;2023-06-10T00:59:43;4.30;;;4.00;;
57615;SDS011;43816;52.054;-9.494;2023-06-10T00:59:58;4.60;;;4.20;;
57615;SDS011;43816;52.054;-9.494;2023-06-10T01:00:08;4.70;;;4.30;;
57615;SDS011;43816;52.054;-9.494;2023-06-10T01:00:19;4.68;;;4.30;;
57615;SDS011;43816;52.054;-9.494;2023-06-10T01:00:29;4.70;;;4.35;;
57615;SDS011;43816;52.054;-9.494;2023-06-10T01:00:40;4.73;;;4.33;;
57615;SDS011;43816;52.054;-9.494;2023-06-10T01:00:50;4.80;;;4.40;;
57615;SDS011;43816;52.054;-9.494;2023-06-10T01:01:00;4.68;;;4.32;;
57615;SDS011;43816;52.054;-9.494;2023-06-10T01:01:11;4.50;;;4.20;;
57615;SDS011;43816;52.054;-9.494;2023-06-10T01:01:21;4.50;;;4.20;;
57615;SDS011;43816;52.054;-9.494;2023-06-10T01:01:34;4.75;;;4.35;;
57615;SDS011;43816;52.054;-9.494;2023-06-10T01:01:45;4.60;;;4.30;;
57615;SDS011;43816;52.054;-9.494;2023-06-10T01:01:56;4.68;;;4.30;;
57615;SDS011;43816;52.054;-9.494;2023-06-10T01:02:06;4.70;;;4.30;;
57615;SDS011;43816;52.054;-9.494;2023-06-10T01:02:17;4.70;;;4.30;;
57615;SDS011;43816;52.054;-9.494;2023-06-10T01:02:27;4.57;;;4.22;;
57615;SDS011;43816;52.054;-9.494;2023-06-10T01:02:37;4.50;;;4.20;;
57615;SDS011;43816;52.054;-9.494;2023-06-10T01:02:48;4.63;;;4.23;;
57615;SDS011;43816;52.054;-9.494;2023-06-10T01:02:58;4.47;;;4.18;;
57615;SDS011;43816;52.054;-9.494;2023-06-10T01:03:08;4.50;;;4.17;;
57615;SDS011;43816;52.054;-9.494;2023-06-10T01:03:19;4.33;;;4.03;;
57615;SDS011;43816;52.054;-9.494;2023-06-10T01:03:29;4.37;;;4.07;;
57615;SDS011;43816;52.054;-9.494;2023-06-10T01:03:42;4.30;;;4.00;;
57615;SDS011;43816;52.054;-9.494;2023-06-10T01:03:53;4.53;;;4.22;;
57615;SDS011;43816;52.054;-9.494;2023-06-10T01:04:03;4.65;;;4.30;;
57615;SDS011;43816;52.054;-9.494;2023-06-10T01:04:13;4.67;;;4.27;;
57615;SDS011;43816;52.054;-9.494;2023-06-10T01:04:24;4.53;;;4.20;;
57615;SDS011;43816;52.054;-9.494;2023-06-10T01:04:34;4.57;;;4.22;;
57615;SDS011;43816;52.054;-9.494;2023-06-10T01:04:45;4.67;;;4.30;;
57615;SDS011;43816;52.054;-9.494;2023-06-10T01:04:55;4.53;;;4.20;;
57615;SDS011;43816;52.054;-9.494;2023-06-10T01:05:05;4.50;;;4.10;;